Time;durP1;ratioP1;P1;durP2;ratioP2;P2;SDS_P1;SDS_P2;PMS_P1;PMS_P2;Temp;Humidity;BMP_temperature;BMP_pressure;BME280_temperature;BME280_humidity;BME280_pressure;Samples;Min_cycle;Max_cycle;Signal;HPM_P1;HPM_P2
2021/07/06 00:00:22;;;;;;;2.20;1.70;;;17.60;99.90;;;;;;5080094;28;20874;-84
2021/07/06 00:02:49;;;;;;;3.03;2.60;;;17.50;99.90;;;;;;5062327;28;20160;-83
2021/07/06 00:05:16;;;;;;;1.90;1.80;;;17.50;99.90;;;;;;5081867;28;20528;-84
2021/07/06 00:07:42;;;;;;;3.00;2.70;;;17.40;99.90;;;;;;5080444;28;20441;-84
2021/07/06 00:10:09;;;;;;;2.53;2.00;;;17.50;99.90;;;;;;5080834;28;20394;-84
2021/07/06 00:12:36;;;;;;;2.90;2.67;;;17.40;99.90;;;;;;5081033;28;20386;-84
2021/07/06 00:15:04;;;;;;;2.53;2.30;;;17.30;99.90;;;;;;5079900;28;20393;-83
2021/07/06 00:17:30;;;;;;;3.30;2.27;;;17.30;99.90;;;;;;5062200;28;20386;-84
2021/07/06 00:19:56;;;;;;;1.83;1.70;;;17.40;99.90;;;;;;5079918;28;20385;-83
2021/07/06 00:22:21;;;;;;;2.37;2.00;;;17.40;99.90;;;;;;5062384;28;20600;-84
2021/07/06 00:24:48;;;;;;;2.60;2.40;;;17.40;99.90;;;;;;5063186;28;20253;-84
2021/07/06 00:27:14;;;;;;;2.47;2.37;;;17.40;99.90;;;;;;5080062;28;20166;-83
2021/07/06 00:29:40;;;;;;;2.60;2.20;;;17.40;99.90;;;;;;5080692;28;20386;-82
2021/07/06 00:32:06;;;;;;;3.20;2.47;;;17.30;99.90;;;;;;5080584;28;20189;-84
2021/07/06 00:34:32;;;;;;;2.30;2.10;;;17.30;99.90;;;;;;5063552;28;20905;-83
2021/07/06 00:36:58;;;;;;;3.40;1.90;;;17.40;99.90;;;;;;5080497;28;20433;-83
2021/07/06 00:39:24;;;;;;;2.83;2.63;;;17.40;99.90;;;;;;5081585;28;20418;-84
2021/07/06 00:41:50;;;;;;;6.07;2.20;;;17.40;99.90;;;;;;5062186;28;20386;-84
2021/07/06 00:44:19;;;;;;;2.67;2.33;;;17.40;99.90;;;;;;5062867;28;20164;-84
2021/07/06 00:46:45;;;;;;;4.80;1.90;;;17.40;99.90;;;;;;5062265;28;20163;-84
2021/07/06 00:49:11;;;;;;;2.00;1.90;;;17.40;99.90;;;;;;5081105;28;20427;-84
2021/07/06 00:51:40;;;;;;;2.53;2.33;;;17.40;99.90;;;;;;5032480;28;20467;-83
2021/07/06 00:54:07;;;;;;;2.57;2.10;;;17.30;99.90;;;;;;5084463;28;20835;-83
2021/07/06 00:56:35;;;;;;;7.17;3.00;;;17.40;99.90;;;;;;5084090;28;20195;-84
2021/07/06 00:59:03;;;;;;;3.43;2.27;;;17.40;99.90;;;;;;5066573;28;20446;-84
2021/07/06 01:01:30;;;;;;;2.37;2.17;;;17.40;99.90;;;;;;5082976;28;20414;-84
2021/07/06 01:03:56;;;;;;;3.10;2.23;;;17.50;99.90;;;;;;5083749;28;20175;-84
2021/07/06 01:06:21;;;;;;;2.00;1.90;;;17.50;99.90;;;;;;5083525;28;20455;-82
2021/07/06 01:08:48;;;;;;;3.10;1.90;;;17.60;99.90;;;;;;5065786;28;20290;-84
2021/07/06 01:11:17;;;;;;;2.30;2.07;;;17.60;99.90;;;;;;5083210;28;20164;-84
2021/07/06 01:13:43;;;;;;;2.17;2.07;;;17.70;99.90;;;;;;5083785;28;20497;-84
2021/07/06 01:16:09;;;;;;;2.20;2.00;;;17.60;99.90;;;;;;5083488;28;20445;-83
2021/07/06 01:18:35;;;;;;;2.27;2.00;;;17.60;99.90;;;;;;5083773;28;20390;-84
2021/07/06 01:21:01;;;;;;;6.90;2.20;;;17.60;99.90;;;;;;5083386;28;20421;-84
2021/07/06 01:23:29;;;;;;;2.10;1.90;;;17.60;99.90;;;;;;5083116;28;20196;-84
2021/07/06 01:26:00;;;;;;;1.70;1.60;;;17.80;99.90;;;;;;5083655;28;20156;-82
2021/07/06 01:28:26;;;;;;;2.10;2.00;;;17.80;99.90;;;;;;5083660;28;20409;-82
2021/07/06 01:30:52;;;;;;;4.80;2.10;;;17.70;99.90;;;;;;5082874;28;20879;-82
2021/07/06 01:33:22;;;;;;;6.67;2.00;;;17.60;99.90;;;;;;5082735;28;20425;-84
2021/07/06 01:35:48;;;;;;;2.40;2.20;;;17.60;99.90;;;;;;5083272;28;20575;-84
2021/07/06 01:38:14;;;;;;;2.47;2.33;;;17.60;99.90;;;;;;5083170;28;20394;-84
2021/07/06 01:40:40;;;;;;;3.80;2.30;;;17.50;99.90;;;;;;5082589;28;20405;-83
2021/07/06 01:43:06;;;;;;;4.00;2.57;;;17.50;99.90;;;;;;5082388;28;20230;-84
2021/07/06 01:45:33;;;;;;;3.20;2.93;;;17.30;99.90;;;;;;5082844;28;20186;-83
2021/07/06 01:48:01;;;;;;;2.43;2.17;;;17.30;99.90;;;;;;5082917;28;20714;-84
2021/07/06 01:50:33;;;;;;;7.37;2.40;;;17.30;99.90;;;;;;5083098;28;20387;-83
2021/07/06 01:53:02;;;;;;;2.70;2.50;;;17.30;99.90;;;;;;5083534;28;20810;-83
2021/07/06 01:55:31;;;;;;;2.87;2.57;;;17.30;99.90;;;;;;5083235;28;20442;-83
2021/07/06 01:57:59;;;;;;;2.10;2.00;;;17.40;99.90;;;;;;5078305;28;20390;-82
2021/07/06 02:00:29;;;;;;;2.70;2.03;;;17.20;99.90;;;;;;5098529;28;20386;-83
2021/07/06 02:02:57;;;;;;;5.70;2.60;;;17.10;99.90;;;;;;5084292;28;20405;-84
2021/07/06 02:05:34;;;;;;;2.20;2.07;;;17.00;99.90;;;;;;5083620;28;20393;-84
2021/07/06 02:08:00;;;;;;;3.57;2.20;;;16.90;99.90;;;;;;5061940;28;20437;-85
2021/07/06 02:10:28;;;;;;;4.17;2.47;;;16.90;99.90;;;;;;5061498;28;20398;-84
2021/07/06 02:12:55;;;;;;;2.50;2.30;;;16.80;99.90;;;;;;5061711;28;20414;-84
2021/07/06 02:15:21;;;;;;;2.80;2.60;;;16.90;99.90;;;;;;5060392;28;20402;-84
2021/07/06 02:17:47;;;;;;;2.43;2.23;;;16.80;99.90;;;;;;5044626;28;20402;-84
2021/07/06 02:20:17;;;;;;;3.10;2.43;;;16.80;99.90;;;;;;5044679;28;20156;-83
2021/07/06 02:22:45;;;;;;;3.63;3.33;;;16.80;99.90;;;;;;5061046;28;20497;-84
2021/07/06 02:25:12;;;;;;;3.93;3.00;;;17.00;99.90;;;;;;5060564;28;20391;-84
2021/07/06 02:27:39;;;;;;;2.23;2.03;;;17.00;99.90;;;;;;5060784;28;20398;-84
2021/07/06 02:30:07;;;;;;;2.90;2.53;;;17.10;99.90;;;;;;5060788;28;20398;-84
2021/07/06 02:32:33;;;;;;;2.80;2.47;;;17.20;99.90;;;;;;5060739;28;20799;-84
2021/07/06 02:34:59;;;;;;;2.27;2.03;;;17.10;99.90;;;;;;5059566;28;20406;-84
2021/07/06 02:37:25;;;;;;;2.20;2.10;;;17.20;99.90;;;;;;5059897;28;20562;-84
2021/07/06 02:39:51;;;;;;;3.00;2.20;;;17.20;99.90;;;;;;5080228;28;20176;-84
2021/07/06 02:42:16;;;;;;;4.17;2.40;;;17.10;99.90;;;;;;5083034;28;20219;-84
2021/07/06 02:44:42;;;;;;;1.97;1.80;;;17.10;99.90;;;;;;5065265;28;20155;-84
2021/07/06 02:47:08;;;;;;;2.03;1.93;;;17.10;99.90;;;;;;5082819;28;20159;-84
2021/07/06 02:49:34;;;;;;;3.80;2.93;;;17.10;99.90;;;;;;5081746;28;20248;-84
2021/07/06 02:52:00;;;;;;;2.60;2.40;;;17.20;99.90;;;;;;5048336;28;20390;-84
2021/07/06 02:54:26;;;;;;;2.03;1.83;;;17.30;99.90;;;;;;5083922;28;20155;-84
2021/07/06 02:56:51;;;;;;;2.80;1.97;;;17.30;99.90;;;;;;5082763;28;20591;-84
2021/07/06 02:59:17;;;;;;;2.23;2.13;;;17.20;99.90;;;;;;5065240;28;20631;-84
2021/07/06 03:01:43;;;;;;;2.63;2.10;;;17.10;99.90;;;;;;5082344;28;20155;-84
2021/07/06 03:04:08;;;;;;;2.50;2.30;;;17.00;99.90;;;;;;5083062;28;20502;-84
2021/07/06 03:06:34;;;;;;;5.97;2.30;;;17.20;99.90;;;;;;5082755;28;20174;-86
2021/07/06 03:09:00;;;;;;;2.00;1.90;;;17.20;99.90;;;;;;5064834;28;20191;-85
2021/07/06 03:11:26;;;;;;;2.40;2.10;;;17.20;99.90;;;;;;5063963;28;20198;-84
2021/07/06 03:13:52;;;;;;;2.40;2.17;;;17.10;99.90;;;;;;5063730;28;20462;-84
2021/07/06 03:16:18;;;;;;;3.13;2.93;;;17.20;99.90;;;;;;5081538;28;20481;-84
2021/07/06 03:18:44;;;;;;;2.10;2.00;;;17.30;99.90;;;;;;5080952;28;20152;-84
2021/07/06 03:21:10;;;;;;;2.27;2.07;;;17.20;99.90;;;;;;5081612;28;20156;-84
2021/07/06 03:23:36;;;;;;;2.37;2.17;;;17.10;99.90;;;;;;5063919;28;20154;-84
2021/07/06 03:26:02;;;;;;;2.70;2.50;;;17.10;99.90;;;;;;5081059;28;20182;-84
2021/07/06 03:28:28;;;;;;;2.60;2.40;;;17.10;99.90;;;;;;5081254;28;20877;-84
2021/07/06 03:30:54;;;;;;;6.13;2.73;;;17.10;99.90;;;;;;5080468;28;20393;-84
2021/07/06 03:33:20;;;;;;;2.83;2.53;;;17.10;99.90;;;;;;5063119;28;20159;-84
2021/07/06 03:35:46;;;;;;;2.50;2.23;;;17.00;99.90;;;;;;5080789;28;20230;-84
2021/07/06 03:38:13;;;;;;;2.10;1.93;;;16.80;99.90;;;;;;5080928;28;20620;-84
2021/07/06 03:40:39;;;;;;;3.53;3.23;;;16.80;99.90;;;;;;5063268;28;20396;-84
2021/07/06 03:43:08;;;;;;;3.00;2.40;;;16.70;99.90;;;;;;5081162;28;20441;-84
2021/07/06 03:45:34;;;;;;;2.73;2.53;;;16.70;99.90;;;;;;5064227;28;20573;-84
2021/07/06 03:48:00;;;;;;;4.17;2.40;;;16.60;99.90;;;;;;5081105;28;20485;-84
2021/07/06 03:50:27;;;;;;;2.60;2.40;;;16.60;99.90;;;;;;5081148;28;20425;-84
2021/07/06 03:52:57;;;;;;;2.27;2.07;;;16.50;99.90;;;;;;5079886;28;20160;-84
2021/07/06 03:55:26;;;;;;;2.90;2.70;;;16.50;99.90;;;;;;5081586;28;20740;-84
2021/07/06 03:57:52;;;;;;;2.80;2.60;;;16.50;99.90;;;;;;5081973;28;20855;-84
2021/07/06 04:00:22;;;;;;;2.80;2.30;;;16.50;99.90;;;;;;5087702;28;20409;-84
2021/07/06 04:02:48;;;;;;;2.43;2.23;;;16.40;99.90;;;;;;5094699;28;20390;-83
2021/07/06 04:05:15;;;;;;;3.17;2.60;;;16.50;99.90;;;;;;5095869;28;20439;-83
2021/07/06 04:07:42;;;;;;;3.00;2.70;;;16.60;99.90;;;;;;5095416;28;20446;-81
2021/07/06 04:10:10;;;;;;;2.83;2.63;;;16.60;99.90;;;;;;5080737;28;20386;-84
2021/07/06 04:12:37;;;;;;;3.73;2.40;;;16.60;99.90;;;;;;5079836;28;20405;-84
2021/07/06 04:15:06;;;;;;;4.67;2.50;;;16.70;99.90;;;;;;5079787;28;20390;-84
2021/07/06 04:17:31;;;;;;;2.63;2.33;;;16.70;99.90;;;;;;5079899;28;20437;-84
2021/07/06 04:19:58;;;;;;;3.83;3.03;;;16.80;99.90;;;;;;5079744;28;20397;-84
2021/07/06 04:22:26;;;;;;;3.90;3.60;;;16.80;99.90;;;;;;5062878;28;20159;-84
2021/07/06 04:24:52;;;;;;;1.97;1.77;;;17.00;99.90;;;;;;5082816;28;20721;-84
2021/07/06 04:27:18;;;;;;;2.63;2.40;;;17.10;99.90;;;;;;5073002;28;20170;-84
2021/07/06 04:29:46;;;;;;;2.70;2.50;;;17.30;99.90;;;;;;5091531;28;20164;-84
2021/07/06 04:32:19;;;;;;;4.00;2.97;;;17.50;99.90;;;;;;5091858;28;20166;-84
2021/07/06 04:34:57;;;;;;;2.30;2.20;;;17.60;99.90;;;;;;5053297;28;20390;-84
2021/07/06 04:37:24;;;;;;;2.37;2.27;;;17.70;99.90;;;;;;5084347;28;20448;-84
2021/07/06 04:39:49;;;;;;;10.43;3.00;;;17.80;99.90;;;;;;5084544;28;20152;-84
2021/07/06 04:42:16;;;;;;;2.10;2.00;;;17.80;99.90;;;;;;5084179;28;20513;-84
2021/07/06 04:44:43;;;;;;;2.50;2.30;;;17.80;99.90;;;;;;5085213;28;20183;-84
2021/07/06 04:47:09;;;;;;;8.23;3.00;;;17.90;99.90;;;;;;5088311;28;20457;-85
2021/07/06 04:49:34;;;;;;;2.47;2.10;;;18.00;99.90;;;;;;5084663;28;20874;-85
2021/07/06 04:52:02;;;;;;;3.50;2.63;;;18.00;99.90;;;;;;5085177;28;20163;-85
2021/07/06 04:54:27;;;;;;;5.77;2.47;;;18.10;99.90;;;;;;5085305;28;20234;-85
2021/07/06 04:56:53;;;;;;;2.23;2.00;;;18.20;99.90;;;;;;5084932;28;20449;-85
2021/07/06 04:59:20;;;;;;;3.70;2.43;;;18.10;99.90;;;;;;5067659;28;20254;-84
2021/07/06 05:01:46;;;;;;;4.33;2.53;;;18.20;99.90;;;;;;5085447;28;20159;-85
2021/07/06 05:04:13;;;;;;;6.10;2.50;;;18.40;99.90;;;;;;5085723;28;20761;-85
2021/07/06 05:06:39;;;;;;;6.70;2.60;;;18.40;99.90;;;;;;5084957;28;20421;-85
2021/07/06 05:09:06;;;;;;;2.57;2.10;;;18.60;99.90;;;;;;5085595;28;20790;-85
2021/07/06 05:11:32;;;;;;;8.53;2.33;;;18.60;99.90;;;;;;5043233;28;20407;-85
2021/07/06 05:13:59;;;;;;;4.80;2.47;;;18.70;99.90;;;;;;5042935;28;20454;-85
2021/07/06 05:16:25;;;;;;;10.60;3.10;;;18.60;99.90;;;;;;5043581;28;20239;-84
2021/07/06 05:18:50;;;;;;;9.40;3.07;;;18.70;99.90;;;;;;5043360;28;20470;-85
2021/07/06 05:21:17;;;;;;;8.07;2.47;;;18.80;99.90;;;;;;5042732;28;20185;-84
2021/07/06 05:23:43;;;;;;;8.63;3.20;;;18.90;99.90;;;;;;5043045;28;20168;-84
2021/07/06 05:26:09;;;;;;;5.90;2.67;;;19.00;99.90;;;;;;5041665;28;20469;-85
2021/07/06 05:28:35;;;;;;;2.17;1.97;;;19.00;99.90;;;;;;5041968;28;20399;-85
2021/07/06 05:31:03;;;;;;;2.30;2.20;;;19.00;99.90;;;;;;5041679;28;20311;-85
2021/07/06 05:33:40;;;;;;;2.43;2.23;;;19.00;99.90;;;;;;5042364;28;20165;-84
2021/07/06 05:36:06;;;;;;;3.00;2.20;;;19.10;99.90;;;;;;5002258;28;20495;-84
2021/07/06 05:38:32;;;;;;;3.67;2.53;;;19.30;99.90;;;;;;5003072;28;20417;-84
2021/07/06 05:40:58;;;;;;;4.70;2.50;;;19.30;99.90;;;;;;5007178;28;20639;-83
2021/07/06 05:43:26;;;;;;;2.17;1.80;;;19.40;99.90;;;;;;5047570;28;20466;-83
2021/07/06 05:45:54;;;;;;;4.73;2.20;;;19.40;99.90;;;;;;5041734;28;20197;-83
2021/07/06 05:48:20;;;;;;;5.53;2.10;;;19.50;99.90;;;;;;5048160;28;20843;-83
2021/07/06 05:50:47;;;;;;;2.43;2.23;;;19.60;99.90;;;;;;5044579;28;20462;-83
2021/07/06 05:53:13;;;;;;;2.50;2.30;;;19.70;99.90;;;;;;5044659;28;20459;-83
2021/07/06 05:55:40;;;;;;;2.00;1.90;;;19.80;99.90;;;;;;5044956;28;20552;-83
2021/07/06 05:58:06;;;;;;;7.33;2.20;;;19.80;99.90;;;;;;5043864;28;20195;-84
2021/07/06 06:00:34;;;;;;;1.87;1.77;;;19.80;99.90;;;;;;5039381;28;20752;-83
2021/07/06 06:03:01;;;;;;;2.00;1.90;;;19.80;99.90;;;;;;5044022;28;20482;-84
2021/07/06 06:05:26;;;;;;;2.70;2.23;;;19.90;99.90;;;;;;5042841;28;20419;-84
2021/07/06 06:07:52;;;;;;;2.50;2.30;;;20.00;99.90;;;;;;5078501;28;20429;-84
2021/07/06 06:10:18;;;;;;;6.13;2.73;;;20.00;99.90;;;;;;5084420;28;20171;-84
2021/07/06 06:12:44;;;;;;;3.63;2.07;;;20.10;99.90;;;;;;5085445;28;20186;-83
2021/07/06 06:15:28;;;;;;;2.27;2.07;;;20.20;99.90;;;;;;5085336;28;20438;-84
2021/07/06 06:17:57;;;;;;;2.87;2.57;;;20.30;99.90;;;;;;5086233;28;20891;-83
2021/07/06 06:20:23;;;;;;;2.43;2.00;;;20.30;99.90;;;;;;5084579;28;20770;-84
2021/07/06 06:22:49;;;;;;;2.60;2.40;;;20.30;99.90;;;;;;5084269;28;20454;-84
2021/07/06 06:25:15;;;;;;;1.93;1.83;;;20.30;99.90;;;;;;5084272;28;20175;-83
2021/07/06 06:27:41;;;;;;;1.93;1.83;;;20.40;99.90;;;;;;5085888;28;20422;-83
2021/07/06 06:30:08;;;;;;;2.97;1.90;;;20.50;99.90;;;;;;5081319;28;20467;-83
2021/07/06 06:32:34;;;;;;;2.63;2.20;;;20.40;99.90;;;;;;5078545;28;20432;-83
2021/07/06 06:35:00;;;;;;;2.30;2.10;;;20.50;99.90;;;;;;5080535;28;20477;-84
2021/07/06 06:37:26;;;;;;;6.30;2.30;;;20.60;99.90;;;;;;5080286;28;20290;-84
2021/07/06 06:39:52;;;;;;;8.73;3.00;;;20.60;99.90;;;;;;5078306;28;20167;-84
2021/07/06 06:42:18;;;;;;;10.47;2.83;;;20.70;99.90;;;;;;5078492;28;20287;-84
2021/07/06 06:44:43;;;;;;;13.33;3.40;;;20.90;99.90;;;;;;5081468;28;20167;-83
2021/07/06 06:47:09;;;;;;;2.77;2.10;;;20.80;99.90;;;;;;5079958;28;20155;-84
2021/07/06 06:49:35;;;;;;;4.93;3.27;;;20.90;99.90;;;;;;5078874;28;20217;-84
2021/07/06 06:52:01;;;;;;;7.50;3.47;;;21.00;99.90;;;;;;5080357;28;20163;-84
2021/07/06 06:54:27;;;;;;;6.33;2.37;;;21.10;99.90;;;;;;5062503;28;20402;-84
2021/07/06 06:56:53;;;;;;;10.50;3.60;;;21.20;99.90;;;;;;5079591;28;20195;-84
2021/07/06 06:59:19;;;;;;;6.23;3.07;;;21.30;99.90;;;;;;5079260;28;20874;-83
2021/07/06 07:01:45;;;;;;;4.30;3.40;;;21.30;99.90;;;;;;5079858;28;20163;-84
2021/07/06 07:04:11;;;;;;;8.03;3.27;;;21.20;99.90;;;;;;5078684;28;20405;-83
2021/07/06 07:06:37;;;;;;;13.70;3.90;;;21.20;99.90;;;;;;5061616;28;20175;-84
2021/07/06 07:09:08;;;;;;;3.60;2.53;;;21.20;99.90;;;;;;5077539;28;20199;-84
2021/07/06 07:11:35;;;;;;;2.70;2.27;;;21.30;99.90;;;;;;5078932;28;20429;-83
2021/07/06 07:14:01;;;;;;;4.63;2.93;;;21.40;99.90;;;;;;5078771;28;20401;-83
2021/07/06 07:16:27;;;;;;;1.93;1.83;;;21.50;99.90;;;;;;5079105;28;20707;-82
2021/07/06 07:18:53;;;;;;;8.60;2.73;;;21.50;99.90;;;;;;5079175;28;20394;-84
2021/07/06 07:21:19;;;;;;;2.73;2.53;;;21.60;99.90;;;;;;5078809;28;20516;-83
2021/07/06 07:23:44;;;;;;;5.03;2.40;;;21.70;99.90;;;;;;5078791;28;20417;-84
2021/07/06 07:26:10;;;;;;;3.13;2.70;;;21.70;99.90;;;;;;5095307;28;20187;-83
2021/07/06 07:28:36;;;;;;;1.90;1.80;;;21.70;99.90;;;;;;5097749;28;20189;-83
2021/07/06 07:31:02;;;;;;;2.20;2.00;;;21.80;99.90;;;;;;5097799;28;20170;-83
2021/07/06 07:33:28;;;;;;;1.77;1.60;;;21.80;99.90;;;;;;5097670;28;20386;-83
2021/07/06 07:35:54;;;;;;;2.33;2.13;;;21.90;99.90;;;;;;5082563;28;20461;-83
2021/07/06 07:38:24;;;;;;;2.10;1.90;;;22.10;99.90;;;;;;5081658;28;20169;-83
2021/07/06 07:40:53;;;;;;;7.03;2.60;;;22.10;99.90;;;;;;5080009;28;20409;-83
2021/07/06 07:43:19;;;;;;;3.77;2.47;;;22.20;99.90;;;;;;5060845;28;20461;-83
2021/07/06 07:45:45;;;;;;;4.60;1.63;;;22.30;99.90;;;;;;5078489;28;20193;-83
2021/07/06 07:48:10;;;;;;;5.60;2.63;;;22.30;99.90;;;;;;5026398;28;20494;-83
2021/07/06 07:50:36;;;;;;;2.53;2.30;;;22.40;99.90;;;;;;5061055;28;20172;-83
2021/07/06 07:53:02;;;;;;;2.53;2.33;;;22.50;99.90;;;;;;5061084;28;20612;-83
2021/07/06 07:55:28;;;;;;;2.00;1.80;;;22.60;99.90;;;;;;5078316;28;20198;-83
2021/07/06 07:57:55;;;;;;;7.57;3.07;;;22.70;99.90;;;;;;5060016;28;20156;-83
2021/07/06 08:00:21;;;;;;;3.63;2.77;;;22.80;99.90;;;;;;5080393;28;20159;-83
2021/07/06 08:02:47;;;;;;;2.17;1.70;;;22.90;99.90;;;;;;5082078;28;20389;-83
2021/07/06 08:05:15;;;;;;;2.17;2.07;;;23.00;99.90;;;;;;5082351;28;20260;-83
2021/07/06 08:07:43;;;;;;;2.40;2.20;;;23.10;99.90;;;;;;5082576;28;20641;-82
2021/07/06 08:10:10;;;;;;;2.47;2.33;;;23.20;99.90;;;;;;5081628;28;20394;-83
2021/07/06 08:12:35;;;;;;;7.33;3.83;;;23.20;99.90;;;;;;5082065;28;20397;-84
2021/07/06 08:15:04;;;;;;;2.13;2.03;;;23.30;99.90;;;;;;5081247;28;20390;-84
2021/07/06 08:17:30;;;;;;;2.00;1.90;;;23.40;99.90;;;;;;5064031;28;20261;-84
2021/07/06 08:19:59;;;;;;;4.07;2.40;;;23.40;99.90;;;;;;5064277;28;20451;-84
2021/07/06 08:22:26;;;;;;;3.43;1.67;;;23.60;99.90;;;;;;5082977;28;20743;-84
2021/07/06 08:24:52;;;;;;;2.50;1.93;;;23.60;99.90;;;;;;5082652;28;20386;-85
2021/07/06 08:27:21;;;;;;;3.13;2.03;;;23.60;99.90;;;;;;5081077;28;20475;-85
2021/07/06 08:29:47;;;;;;;2.40;2.20;;;23.70;99.90;;;;;;5018858;28;20898;-85
2021/07/06 08:32:13;;;;;;;8.73;2.20;;;23.80;99.90;;;;;;5020425;28;20474;-84
2021/07/06 08:34:39;;;;;;;8.10;2.83;;;23.90;99.90;;;;;;5004731;28;20245;-84
2021/07/06 08:37:05;;;;;;;5.00;3.33;;;24.00;99.90;;;;;;5019690;28;20447;-84
2021/07/06 08:39:30;;;;;;;4.60;2.10;;;24.00;99.90;;;;;;5001489;28;20196;-84
2021/07/06 08:41:57;;;;;;;5.93;2.60;;;24.00;99.90;;;;;;5022203;28;20252;-84
2021/07/06 08:44:23;;;;;;;3.40;2.87;;;24.10;99.90;;;;;;5039262;28;20192;-84
2021/07/06 08:46:50;;;;;;;1.80;1.70;;;24.10;99.90;;;;;;5005832;28;20441;-84
2021/07/06 08:49:19;;;;;;;6.37;2.57;;;24.10;99.90;;;;;;5006313;28;20422;-84
2021/07/06 08:51:50;;;;;;;5.37;2.40;;;24.20;99.90;;;;;;5001345;28;20393;-84
2021/07/06 08:54:16;;;;;;;8.27;2.73;;;24.30;99.90;;;;;;5001863;28;20417;-84
2021/07/06 08:56:42;;;;;;;6.13;2.90;;;24.40;99.90;;;;;;5003648;28;20436;-83
2021/07/06 08:59:07;;;;;;;5.77;2.70;;;24.60;99.90;;;;;;4969778;28;20433;-83
2021/07/06 09:01:33;;;;;;;18.93;4.17;;;24.60;99.90;;;;;;5074935;28;20194;-84
2021/07/06 09:04:02;;;;;;;4.43;2.90;;;24.70;99.90;;;;;;5086180;28;20166;-84
2021/07/06 09:06:33;;;;;;;2.57;2.37;;;24.80;99.90;;;;;;5104814;28;20257;-83
2021/07/06 09:09:21;;;;;;;5.13;3.20;;;24.80;99.90;;;;;;5071926;28;20433;-84
2021/07/06 09:11:50;;;;;;;2.17;1.97;;;24.90;99.90;;;;;;5085988;28;20524;-83
2021/07/06 09:14:16;;;;;;;1.80;1.70;;;25.00;99.90;;;;;;5084676;28;20440;-84
2021/07/06 09:16:43;;;;;;;2.93;2.30;;;25.10;99.90;;;;;;5100079;28;20441;-84
2021/07/06 09:19:24;;;;;;;15.53;4.10;;;25.10;99.90;;;;;;5082256;28;20179;-83
2021/07/06 09:22:11;;;;;;;5.83;3.03;;;25.20;99.90;;;;;;5081370;28;20405;-83
2021/07/06 09:24:39;;;;;;;4.20;2.57;;;25.30;99.90;;;;;;5081864;28;20460;-83
2021/07/06 09:27:20;;;;;;;15.17;3.47;;;25.30;99.90;;;;;;5083438;28;20900;-84
2021/07/06 09:30:08;;;;;;;9.93;4.90;;;25.40;99.90;;;;;;5089853;28;20410;-82
2021/07/06 09:32:38;;;;;;;3.67;2.53;;;25.30;99.90;;;;;;5073178;28;20402;-84
2021/07/06 09:35:06;;;;;;;4.20;2.30;;;25.50;99.90;;;;;;5067417;28;20480;-84
2021/07/06 09:37:43;;;;;;;3.27;1.90;;;25.40;99.90;;;;;;5082590;28;20461;-83
2021/07/06 09:40:23;;;;;;;5.20;2.40;;;25.50;99.90;;;;;;5082523;28;20405;-83
2021/07/06 09:43:18;;;;;;;6.87;2.40;;;25.60;99.90;;;;;;5082773;28;20823;-84
2021/07/06 09:46:00;;;;;;;4.57;2.80;;;25.70;99.90;;;;;;5084406;28;20417;-83
2021/07/06 09:48:28;;;;;;;3.03;2.03;;;26.00;99.90;;;;;;5070388;28;20452;-82
2021/07/06 09:51:11;;;;;;;7.50;2.53;;;26.10;99.90;;;;;;5087829;28;20485;-84
2021/07/06 09:53:39;;;;;;;4.23;2.80;;;26.20;99.90;;;;;;5093128;28;20398;-84
2021/07/06 09:56:10;;;;;;;2.70;2.50;;;26.50;99.90;;;;;;5094523;28;20445;-84
2021/07/06 09:58:54;;;;;;;2.40;2.20;;;26.50;99.90;;;;;;5069255;28;20404;-84
2021/07/06 10:01:24;;;;;;;5.07;2.93;;;26.40;99.90;;;;;;5083664;28;20440;-83
2021/07/06 10:03:52;;;;;;;5.53;2.37;;;26.20;99.90;;;;;;5083910;28;20697;-83
2021/07/06 10:06:20;;;;;;;2.83;2.60;;;26.40;99.90;;;;;;5061719;28;20782;-84
2021/07/06 10:08:48;;;;;;;5.63;2.20;;;26.50;99.90;;;;;;5049240;28;20444;-83
2021/07/06 10:11:14;;;;;;;3.03;1.90;;;26.70;99.90;;;;;;5083751;28;20464;-83
2021/07/06 10:13:40;;;;;;;2.10;2.00;;;26.80;99.90;;;;;;5081248;28;20402;-84
2021/07/06 10:16:07;;;;;;;2.73;2.53;;;27.00;99.90;;;;;;5082181;28;20517;-83
2021/07/06 10:18:34;;;;;;;2.70;2.20;;;27.30;99.90;;;;;;5082942;28;20501;-83
2021/07/06 10:21:02;;;;;;;2.20;2.00;;;27.00;99.90;;;;;;5082407;28;20390;-83
2021/07/06 10:23:28;;;;;;;2.30;2.10;;;27.00;99.90;;;;;;5084986;28;20432;-83
2021/07/06 10:25:58;;;;;;;2.57;2.37;;;26.90;99.90;;;;;;5082283;28;20492;-83
2021/07/06 10:28:26;;;;;;;2.20;2.00;;;26.90;99.90;;;;;;5082321;28;20469;-84
2021/07/06 10:30:54;;;;;;;1.80;1.70;;;26.90;99.90;;;;;;5081910;28;20929;-84
2021/07/06 10:33:36;;;;;;;1.97;1.87;;;26.90;99.90;;;;;;5081110;28;20425;-84
2021/07/06 10:36:03;;;;;;;2.60;2.10;;;26.90;99.90;;;;;;5031935;28;20461;-84
2021/07/06 10:38:43;;;;;;;1.97;1.87;;;27.20;99.90;;;;;;5082917;28;20393;-84
2021/07/06 10:41:21;;;;;;;5.17;2.70;;;27.30;99.90;;;;;;5048464;28;20404;-84
2021/07/06 10:43:53;;;;;;;1.93;1.83;;;27.50;99.90;;;;;;5082197;28;20455;-85
2021/07/06 10:46:43;;;;;;;1.97;1.87;;;27.60;99.90;;;;;;5086137;28;20404;-84
2021/07/06 10:49:14;;;;;;;1.70;1.60;;;27.50;99.90;;;;;;5052407;28;20440;-84
2021/07/06 10:51:46;;;;;;;2.00;1.90;;;27.20;99.90;;;;;;5034070;28;20422;-84
2021/07/06 10:54:16;;;;;;;2.67;1.90;;;27.00;99.90;;;;;;5052084;28;20408;-84
2021/07/06 10:56:45;;;;;;;1.90;1.80;;;26.90;99.90;;;;;;5093563;28;20433;-82
2021/07/06 10:59:25;;;;;;;2.43;2.23;;;26.70;99.90;;;;;;5095255;28;20481;-84
2021/07/06 11:01:57;;;;;;;2.10;1.97;;;26.70;99.90;;;;;;5094636;28;20429;-85
2021/07/06 11:04:54;;;;;;;3.20;2.33;;;26.80;99.90;;;;;;5063293;28;20477;-85
2021/07/06 11:07:48;;;;;;;2.00;1.90;;;26.90;99.90;;;;;;5086455;28;20409;-85
2021/07/06 11:10:16;;;;;;;9.67;2.43;;;27.00;99.90;;;;;;5084691;28;20547;-84
2021/07/06 11:12:44;;;;;;;1.80;1.63;;;26.90;99.90;;;;;;5046620;28;20422;-84
2021/07/06 11:15:24;;;;;;;2.30;2.10;;;26.80;99.90;;;;;;5049871;28;20405;-84
2021/07/06 11:18:02;;;;;;;2.23;2.07;;;26.60;99.90;;;;;;5083708;28;20436;-85
2021/07/06 11:20:40;;;;;;;2.03;1.87;;;26.60;99.90;;;;;;5056911;28;20451;-85
2021/07/06 11:23:16;;;;;;;5.23;1.90;;;26.00;99.90;;;;;;5061531;28;20568;-82
2021/07/06 11:25:43;;;;;;;8.33;1.80;;;24.80;99.90;;;;;;5076652;28;20413;-83
2021/07/06 11:28:25;;;;;;;2.00;1.80;;;23.60;99.90;;;;;;5075284;28;20889;-82
2021/07/06 11:31:00;;;;;;;1.93;1.70;;;22.70;99.90;;;;;;5082197;28;20397;-83
2021/07/06 11:33:40;;;;;;;2.53;1.97;;;22.20;99.90;;;;;;5080577;28;20404;-83
2021/07/06 11:36:25;;;;;;;2.90;2.30;;;21.90;99.90;;;;;;5081085;28;21107;-82
2021/07/06 11:38:55;;;;;;;2.30;1.50;;;22.20;99.90;;;;;;5063271;28;20436;-82
2021/07/06 11:41:23;;;;;;;1.77;1.67;;;22.40;99.90;;;;;;5086427;28;20394;-83
2021/07/06 11:43:49;;;;;;;2.17;1.80;;;22.70;99.90;;;;;;5080576;28;20472;-84
2021/07/06 11:46:17;;;;;;;2.63;1.43;;;23.20;99.90;;;;;;5044617;28;20421;-85
2021/07/06 11:48:44;;;;;;;1.60;1.50;;;23.50;99.90;;;;;;5081130;28;20402;-85
2021/07/06 11:51:12;;;;;;;1.90;1.80;;;24.10;99.90;;;;;;5080390;28;20405;-84
2021/07/06 11:53:42;;;;;;;3.60;1.90;;;24.40;99.90;;;;;;5046195;28;20434;-84
2021/07/06 11:56:13;;;;;;;1.90;1.80;;;24.80;99.90;;;;;;5081787;28;20442;-84
2021/07/06 11:58:39;;;;;;;1.70;1.60;;;24.90;99.90;;;;;;5063818;28;20414;-83
2021/07/06 12:01:09;;;;;;;3.10;1.97;;;25.00;99.90;;;;;;5081727;28;20448;-84
2021/07/06 12:03:37;;;;;;;1.87;1.77;;;25.30;99.90;;;;;;5081434;28;20413;-85
2021/07/06 12:06:09;;;;;;;4.10;1.80;;;25.70;99.90;;;;;;5080635;28;20406;-84
2021/07/06 12:08:41;;;;;;;3.60;1.27;;;26.00;99.90;;;;;;5080454;28;20917;-84
2021/07/06 12:11:12;;;;;;;2.70;1.83;;;26.40;99.90;;;;;;5022809;28;20457;-84
2021/07/06 12:13:59;;;;;;;1.83;1.73;;;26.50;99.90;;;;;;5022086;28;20431;-82
2021/07/06 12:16:27;;;;;;;2.30;1.90;;;26.60;99.90;;;;;;5019623;28;20586;-83
2021/07/06 12:18:59;;;;;;;1.40;1.30;;;27.10;99.90;;;;;;5020547;28;20795;-82
2021/07/06 12:21:31;;;;;;;1.83;1.70;;;26.70;99.90;;;;;;5021515;28;20429;-82
2021/07/06 12:23:58;;;;;;;2.20;1.47;;;26.70;99.90;;;;;;5020502;28;20408;-82
2021/07/06 12:26:26;;;;;;;1.80;1.70;;;26.50;99.90;;;;;;5006863;28;20411;-83
2021/07/06 12:28:52;;;;;;;1.70;1.60;;;26.60;99.90;;;;;;5024803;28;20856;-84
2021/07/06 12:31:33;;;;;;;2.00;1.90;;;26.40;99.90;;;;;;5004850;28;20436;-85
2021/07/06 12:34:06;;;;;;;4.00;2.07;;;26.30;99.90;;;;;;5002873;28;20357;-85
2021/07/06 12:37:11;;;;;;;1.70;1.60;;;26.40;99.90;;;;;;5039464;28;20450;-84
2021/07/06 12:39:52;;;;;;;5.63;3.17;;;26.40;99.90;;;;;;5039189;28;20514;-84
2021/07/06 12:42:21;;;;;;;3.40;2.30;;;26.40;99.90;;;;;;5015029;28;20712;-85
2021/07/06 12:44:53;;;;;;;2.00;1.90;;;26.40;99.90;;;;;;5049333;28;20952;-84
2021/07/06 12:47:30;;;;;;;2.73;2.10;;;26.80;99.90;;;;;;5066365;28;20453;-84
2021/07/06 12:50:07;;;;;;;1.97;1.80;;;26.90;99.90;;;;;;5069487;28;20398;-83
2021/07/06 12:52:36;;;;;;;2.07;1.80;;;27.00;99.90;;;;;;5071027;28;20405;-85